createdAt,value
2023-04-07T00:00:27.283Z,7.77
2023-04-07T00:01:27.378Z,7.77
2023-04-07T00:02:27.362Z,7.77
2023-04-07T00:03:27.374Z,7.81
2023-04-07T00:04:27.415Z,7.82
2023-04-07T00:05:27.241Z,7.79
2023-04-07T00:06:27.213Z,7.67
2023-04-07T00:07:27.213Z,7.66
2023-04-07T00:08:27.201Z,7.54
2023-04-07T00:09:27.196Z,7.39
2023-04-07T00:10:27.264Z,7.48
2023-04-07T00:11:27.161Z,7.51
2023-04-07T00:12:27.175Z,7.54
2023-04-07T00:13:27.968Z,7.48
2023-04-07T00:14:27.286Z,7.57
2023-04-07T00:15:27.110Z,7.54
2023-04-07T00:16:27.224Z,7.55
2023-04-07T00:17:28.166Z,7.54
2023-04-07T00:18:27.078Z,7.55
2023-04-07T00:19:27.119Z,7.58
2023-04-07T00:20:27.101Z,7.69
2023-04-07T00:21:27.051Z,7.70
2023-04-07T00:22:27.022Z,7.71
2023-04-07T00:23:27.020Z,7.70
2023-04-07T00:24:33.930Z,7.70
2023-04-07T00:25:29.020Z,7.70
2023-04-07T00:26:26.986Z,7.55
2023-04-07T00:27:26.969Z,7.47
2023-04-07T00:28:26.929Z,7.55
2023-04-07T00:29:26.951Z,7.50
2023-04-07T00:30:26.963Z,7.41
2023-04-07T00:31:27.021Z,7.57
2023-04-07T00:32:26.930Z,7.63
2023-04-07T00:33:26.897Z,7.57
2023-04-07T00:34:26.915Z,7.52
2023-04-07T00:35:26.902Z,7.52
2023-04-07T00:36:26.851Z,7.55
2023-04-07T00:37:26.846Z,7.36
2023-04-07T00:38:26.869Z,7.30
2023-04-07T00:39:26.837Z,7.27
2023-04-07T00:40:26.835Z,7.23
2023-04-07T00:41:26.833Z,7.12
2023-04-07T00:42:26.823Z,7.04
2023-04-07T00:43:26.855Z,6.96
2023-04-07T00:44:26.800Z,6.87
2023-04-07T00:45:26.788Z,6.76
2023-04-07T00:46:26.855Z,6.89
2023-04-07T00:47:26.811Z,6.82
2023-04-07T00:48:26.717Z,6.76
2023-04-07T00:49:26.742Z,6.58
2023-04-07T00:50:26.730Z,6.75
2023-04-07T00:51:26.689Z,6.73
2023-04-07T00:52:26.752Z,6.68
2023-04-07T00:53:26.840Z,6.68
2023-04-07T00:54:26.660Z,6.61
2023-04-07T00:55:26.657Z,6.53
2023-04-07T00:56:26.643Z,6.50
2023-04-07T00:57:26.654Z,6.60
2023-04-07T00:58:26.606Z,6.54
2023-04-07T00:59:26.662Z,6.54
2023-04-07T01:00:26.668Z,6.50
2023-04-07T01:01:26.694Z,6.53
2023-04-07T01:02:26.869Z,6.50
2023-04-07T01:03:26.878Z,6.57
2023-04-07T01:04:26.618Z,6.45
2023-04-07T01:05:26.560Z,6.50
2023-04-07T01:06:26.533Z,6.53
2023-04-07T01:07:26.517Z,6.51
2023-04-07T01:08:27.501Z,6.48
2023-04-07T01:09:26.499Z,6.46
2023-04-07T01:10:26.628Z,6.46
2023-04-07T01:11:26.508Z,6.50
2023-04-07T01:12:26.454Z,6.48
2023-04-07T01:13:26.457Z,6.48
2023-04-07T01:14:26.450Z,6.45
2023-04-07T01:15:26.445Z,6.45
2023-04-07T01:16:26.449Z,6.36
2023-04-07T01:17:27.295Z,6.39
2023-04-07T01:18:26.394Z,6.38
2023-04-07T01:19:26.359Z,6.48
2023-04-07T01:20:26.356Z,6.45
2023-04-07T01:21:26.356Z,6.42
2023-04-07T01:22:26.327Z,6.35
2023-04-07T01:23:26.330Z,6.43
2023-04-07T01:24:26.332Z,6.40
2023-04-07T01:25:26.322Z,6.43
2023-04-07T01:26:26.320Z,6.43
2023-04-07T01:27:26.370Z,6.50
2023-04-07T01:28:26.276Z,6.45
2023-04-07T01:29:26.248Z,6.45
2023-04-07T01:30:26.259Z,6.46
2023-04-07T01:31:26.254Z,6.39
2023-04-07T01:32:26.329Z,6.46
2023-04-07T01:33:26.224Z,6.46
2023-04-07T01:34:26.209Z,6.53
2023-04-07T01:35:26.159Z,6.50
2023-04-07T01:36:26.171Z,6.43
2023-04-07T01:37:26.185Z,6.43
2023-04-07T01:38:26.175Z,6.48
2023-04-07T01:39:26.148Z,6.54
2023-04-07T01:40:26.130Z,6.50
2023-04-07T01:41:26.138Z,6.54
2023-04-07T01:42:26.098Z,6.50
2023-04-07T01:43:26.091Z,6.51
2023-04-07T01:44:26.126Z,6.51
2023-04-07T01:45:26.131Z,6.57
2023-04-07T01:46:26.077Z,6.57
2023-04-07T01:47:26.151Z,6.50
2023-04-07T01:48:26.075Z,6.45
2023-04-07T01:49:26.081Z,6.51
2023-04-07T01:50:26.020Z,6.50
2023-04-07T01:51:26.022Z,6.39
2023-04-07T01:52:25.992Z,6.40
2023-04-07T01:53:25.988Z,6.35
2023-04-07T01:54:25.957Z,6.36
2023-04-07T01:55:25.960Z,6.39
2023-04-07T01:56:25.944Z,6.46
2023-04-07T01:57:25.957Z,6.43
2023-04-07T01:58:25.924Z,6.30
2023-04-07T01:59:25.981Z,6.32
2023-04-07T02:00:25.910Z,6.33
2023-04-07T02:01:25.973Z,6.28
2023-04-07T02:02:26.012Z,6.32
2023-04-07T02:03:26.003Z,6.25
2023-04-07T02:04:25.923Z,6.27
2023-04-07T02:05:25.874Z,6.36
2023-04-07T02:06:25.868Z,6.30
2023-04-07T02:07:25.846Z,6.33
2023-04-07T02:08:25.835Z,6.35
2023-04-07T02:09:25.851Z,6.32
2023-04-07T02:10:25.846Z,6.32
2023-04-07T02:11:25.827Z,6.35
2023-04-07T02:12:25.822Z,6.24
2023-04-07T02:13:25.788Z,6.28
2023-04-07T02:14:25.794Z,6.13
2023-04-07T02:15:25.720Z,6.20
2023-04-07T02:16:25.756Z,6.24
2023-04-07T02:17:25.739Z,6.20
2023-04-07T02:18:58.319Z,6.21
2023-04-07T02:19:25.718Z,6.20
2023-04-07T02:20:59.230Z,6.24
2023-04-07T02:21:25.729Z,6.13
2023-04-07T02:22:25.649Z,6.20
2023-04-07T02:23:25.647Z,6.17
2023-04-07T02:24:25.642Z,6.24
2023-04-07T02:25:25.677Z,6.11
2023-04-07T02:26:25.623Z,6.14
2023-04-07T02:27:25.595Z,6.20
2023-04-07T02:28:25.748Z,6.24
2023-04-07T02:29:25.572Z,6.27
2023-04-07T02:30:25.582Z,6.24
2023-04-07T02:31:25.635Z,6.19
2023-04-07T02:32:25.657Z,6.13
2023-04-07T02:33:25.562Z,6.17
2023-04-07T02:34:25.551Z,6.24
2023-04-07T02:35:25.530Z,6.16
2023-04-07T02:36:25.523Z,6.19
2023-04-07T02:37:25.534Z,6.11
2023-04-07T02:38:25.505Z,6.10
2023-04-07T02:39:25.500Z,6.05
2023-04-07T02:40:25.466Z,6.08
2023-04-07T02:41:25.455Z,6.05
2023-04-07T02:42:25.468Z,5.93
2023-04-07T02:43:25.466Z,6.03
2023-04-07T02:44:25.427Z,6.06
2023-04-07T02:45:25.394Z,6.06
2023-04-07T02:46:25.475Z,5.92
2023-04-07T02:47:25.382Z,5.92
2023-04-07T02:48:25.382Z,5.99
2023-04-07T02:49:25.345Z,5.90
2023-04-07T02:50:25.329Z,5.98
2023-04-07T02:51:25.337Z,5.98
2023-04-07T02:52:26.249Z,5.90
2023-04-07T02:53:25.286Z,5.83
2023-04-07T02:54:25.326Z,5.84
2023-04-07T02:55:25.268Z,5.78
2023-04-07T02:56:25.250Z,5.95
2023-04-07T02:57:25.252Z,5.83
2023-04-07T02:58:25.267Z,5.84
2023-04-07T02:59:25.233Z,5.84
2023-04-07T03:00:25.248Z,5.80
2023-04-07T03:01:25.251Z,5.77
2023-04-07T03:02:25.340Z,5.73
2023-04-07T03:03:25.342Z,5.85
2023-04-07T03:04:25.280Z,5.83
2023-04-07T03:05:25.321Z,5.80
2023-04-07T03:06:25.176Z,5.93
2023-04-07T03:07:25.176Z,5.84
2023-04-07T03:08:25.150Z,5.81
2023-04-07T03:09:25.123Z,5.88
2023-04-07T03:10:25.174Z,5.92
2023-04-07T03:11:25.182Z,5.84
2023-04-07T03:12:25.075Z,5.87
2023-04-07T03:13:25.109Z,5.77
2023-04-07T03:14:25.074Z,5.87
2023-04-07T03:15:25.199Z,5.78
2023-04-07T03:16:25.094Z,5.74
2023-04-07T03:17:25.100Z,5.90
2023-04-07T03:18:25.053Z,5.80
2023-04-07T03:19:25.037Z,5.85
2023-04-07T03:20:25.032Z,5.70
2023-04-07T03:21:25.023Z,5.78
2023-04-07T03:22:25.050Z,5.75
2023-04-07T03:23:24.996Z,5.80
2023-04-07T03:24:24.983Z,5.80
2023-04-07T03:25:24.977Z,5.88
2023-04-07T03:26:24.956Z,5.80
2023-04-07T03:27:24.958Z,5.73
2023-04-07T03:28:24.921Z,5.87
2023-04-07T03:29:24.913Z,5.88
2023-04-07T03:30:24.943Z,5.87
2023-04-07T03:31:24.949Z,5.75
2023-04-07T03:32:24.921Z,5.81
2023-04-07T03:33:24.919Z,5.81
2023-04-07T03:34:24.854Z,5.95
2023-04-07T03:35:25.034Z,5.81
2023-04-07T03:36:24.901Z,5.92
2023-04-07T03:37:24.841Z,5.85
2023-04-07T03:38:24.886Z,5.83
2023-04-07T03:39:24.801Z,5.90
2023-04-07T03:40:24.777Z,5.80
2023-04-07T03:41:24.805Z,5.95
2023-04-07T03:42:24.904Z,5.84
2023-04-07T03:43:24.809Z,5.83
2023-04-07T03:44:24.795Z,5.83
2023-04-07T03:45:24.731Z,5.87
2023-04-07T03:46:24.753Z,5.78
2023-04-07T03:47:24.754Z,5.78
2023-04-07T03:48:24.705Z,5.77
2023-04-07T03:49:24.767Z,5.74
2023-04-07T03:50:24.699Z,5.84
2023-04-07T03:51:24.769Z,5.81
2023-04-07T03:52:24.657Z,5.87
2023-04-07T03:53:24.679Z,5.92
2023-04-07T03:54:24.659Z,5.87
2023-04-07T03:55:24.645Z,5.78
2023-04-07T03:56:24.779Z,5.81
2023-04-07T03:57:24.609Z,5.73
2023-04-07T03:58:25.596Z,5.70
2023-04-07T03:59:24.654Z,5.78
2023-04-07T04:00:24.633Z,5.81
2023-04-07T04:01:24.552Z,5.90
2023-04-07T04:02:24.573Z,5.75
2023-04-07T04:03:24.698Z,5.84
2023-04-07T04:04:24.645Z,5.81
2023-04-07T04:05:24.516Z,5.75
2023-04-07T04:06:24.550Z,5.83
2023-04-07T04:07:24.471Z,5.77
2023-04-07T04:08:24.576Z,5.80
2023-04-07T04:09:24.487Z,5.80
2023-04-07T04:10:24.972Z,5.81
2023-04-07T04:11:25.101Z,5.74
2023-04-07T04:12:24.479Z,5.80
2023-04-07T04:13:24.576Z,5.77
2023-04-07T04:14:24.628Z,5.78
2023-04-07T04:15:24.554Z,5.84
2023-04-07T04:16:24.423Z,5.80
2023-04-07T04:17:24.642Z,5.80
2023-04-07T04:18:24.417Z,5.83
2023-04-07T04:19:24.361Z,5.84
2023-04-07T04:20:24.468Z,5.84
2023-04-07T04:21:24.452Z,5.92
2023-04-07T04:22:24.393Z,5.81
2023-04-07T04:23:24.349Z,5.85
2023-04-07T04:24:24.515Z,5.96
2023-04-07T04:25:24.392Z,5.85
2023-04-07T04:26:24.302Z,5.88
2023-04-07T04:27:24.285Z,5.99
2023-04-07T04:28:24.318Z,5.93
2023-04-07T04:29:24.275Z,5.96
2023-04-07T04:30:24.245Z,5.92
2023-04-07T04:31:24.228Z,5.84
2023-04-07T04:32:24.325Z,5.81
2023-04-07T04:33:24.263Z,5.93
2023-04-07T04:34:24.194Z,5.88
2023-04-07T04:35:24.188Z,5.87
2023-04-07T04:36:24.224Z,5.87
2023-04-07T04:37:24.168Z,5.87
2023-04-07T04:38:24.763Z,5.83
2023-04-07T04:39:24.172Z,5.93
2023-04-07T04:40:24.124Z,5.87
2023-04-07T04:41:24.136Z,5.93
2023-04-07T04:42:24.650Z,5.99
2023-04-07T04:43:24.114Z,5.90
2023-04-07T04:44:24.115Z,5.93
2023-04-07T04:45:24.094Z,5.98
2023-04-07T04:46:24.170Z,5.95
2023-04-07T04:47:24.292Z,5.88
2023-04-07T04:48:24.060Z,5.99
2023-04-07T04:49:24.094Z,5.90
2023-04-07T04:50:24.063Z,5.93
2023-04-07T04:51:24.096Z,5.95
2023-04-07T04:52:24.012Z,5.93
2023-04-07T04:53:24.016Z,5.88
2023-04-07T04:54:23.966Z,5.90
2023-04-07T04:55:23.997Z,5.98
2023-04-07T04:56:23.989Z,5.96
2023-04-07T04:57:23.951Z,5.98
2023-04-07T04:58:24.007Z,5.98
2023-04-07T04:59:23.913Z,5.93
2023-04-07T05:00:23.914Z,5.96
2023-04-07T05:01:23.943Z,6.01
2023-04-07T05:02:24.025Z,6.03
2023-04-07T05:03:24.133Z,6.10
2023-04-07T05:04:24.174Z,6.01
2023-04-07T05:05:23.851Z,6.13
2023-04-07T05:06:23.930Z,6.03
2023-04-07T05:07:23.866Z,6.08
2023-04-07T05:08:23.861Z,6.10
2023-04-07T05:09:23.815Z,6.01
2023-04-07T05:10:23.801Z,6.06
2023-04-07T05:11:23.843Z,6.06
2023-04-07T05:12:23.812Z,6.08
2023-04-07T05:13:23.777Z,6.02
2023-04-07T05:14:23.778Z,6.01
2023-04-07T05:15:23.795Z,6.02
2023-04-07T05:16:23.852Z,6.05
2023-04-07T05:17:23.778Z,6.08
2023-04-07T05:18:23.731Z,6.11
2023-04-07T05:19:23.712Z,6.16
2023-04-07T05:20:23.719Z,6.16
2023-04-07T05:21:23.724Z,6.10
2023-04-07T05:22:23.781Z,6.16
2023-04-07T05:23:23.664Z,6.20
2023-04-07T05:24:23.656Z,6.20
2023-04-07T05:25:23.681Z,6.20
2023-04-07T05:26:23.666Z,6.11
2023-04-07T05:27:23.628Z,6.14
2023-04-07T05:28:23.610Z,6.14
2023-04-07T05:29:23.594Z,6.06
2023-04-07T05:30:23.601Z,6.21
2023-04-07T05:31:23.629Z,6.14
2023-04-07T05:32:23.590Z,6.24
2023-04-07T05:33:23.566Z,6.25
2023-04-07T05:34:23.564Z,6.21
2023-04-07T05:35:23.520Z,6.20
2023-04-07T05:36:23.566Z,6.25
2023-04-07T05:37:23.514Z,6.19
2023-04-07T05:38:23.505Z,6.30
2023-04-07T05:39:23.535Z,6.17
2023-04-07T05:40:23.475Z,6.28
2023-04-07T05:41:23.508Z,6.24
2023-04-07T05:42:23.477Z,6.14
2023-04-07T05:43:23.484Z,6.21
2023-04-07T05:44:23.436Z,6.24
2023-04-07T05:45:23.483Z,6.21
2023-04-07T05:46:23.479Z,6.16
2023-04-07T05:47:23.434Z,6.17
2023-04-07T05:48:23.376Z,6.20
2023-04-07T05:49:23.464Z,6.32
2023-04-07T05:50:23.385Z,6.30
2023-04-07T05:51:23.373Z,6.33
2023-04-07T05:52:23.392Z,6.32
2023-04-07T05:53:23.349Z,6.35
2023-04-07T05:54:23.362Z,6.30
2023-04-07T05:55:23.320Z,6.28
2023-04-07T05:56:23.337Z,6.36
2023-04-07T05:57:23.321Z,6.40
2023-04-07T05:58:23.320Z,6.50
2023-04-07T05:59:23.268Z,6.50
2023-04-07T06:00:23.251Z,6.51
2023-04-07T06:01:23.256Z,6.48
2023-04-07T06:02:23.347Z,6.36
2023-04-07T06:03:23.401Z,6.32
2023-04-07T06:04:23.248Z,6.50
2023-04-07T06:05:23.257Z,6.38
2023-04-07T06:06:23.283Z,6.51
2023-04-07T06:07:23.266Z,6.46
2023-04-07T06:08:23.180Z,6.40
2023-04-07T06:09:23.180Z,6.53
2023-04-07T06:10:23.163Z,6.50
2023-04-07T06:11:23.157Z,6.50
2023-04-07T06:12:23.142Z,6.58
2023-04-07T06:13:23.129Z,6.58
2023-04-07T06:14:23.123Z,6.65
2023-04-07T06:15:23.112Z,6.54
2023-04-07T06:16:23.123Z,6.64
2023-04-07T06:17:23.113Z,6.69
2023-04-07T06:18:23.074Z,6.73
2023-04-07T06:19:55.485Z,6.54
2023-04-07T06:20:23.130Z,6.54
2023-04-07T06:21:23.051Z,6.57
2023-04-07T06:22:23.044Z,6.53
2023-04-07T06:23:23.047Z,6.53
2023-04-07T06:24:22.988Z,6.53
2023-04-07T06:25:23.012Z,6.54
2023-04-07T06:26:23.192Z,6.51
2023-04-07T06:27:23.101Z,6.61
2023-04-07T06:28:23.037Z,6.64
2023-04-07T06:29:23.059Z,6.69
2023-04-07T06:30:23.042Z,6.65
2023-04-07T06:31:23.061Z,6.64
2023-04-07T06:32:22.991Z,6.69
2023-04-07T06:33:23.075Z,6.72
2023-04-07T06:34:22.876Z,6.69
2023-04-07T06:35:23.026Z,6.54
2023-04-07T06:36:22.958Z,6.64
2023-04-07T06:37:22.932Z,6.64
2023-04-07T06:38:22.874Z,6.61
2023-04-07T06:39:22.903Z,6.58
2023-04-07T06:40:22.876Z,6.50
2023-04-07T06:41:22.868Z,6.55
2023-04-07T06:42:22.890Z,6.61
2023-04-07T06:43:22.896Z,6.58
2023-04-07T06:44:22.862Z,6.65
2023-04-07T06:45:22.880Z,6.60
2023-04-07T06:46:22.883Z,6.65
2023-04-07T06:47:22.780Z,6.63
2023-04-07T06:48:22.790Z,6.63
2023-04-07T06:49:22.881Z,6.64
2023-04-07T06:50:22.739Z,6.73
2023-04-07T06:51:22.881Z,6.78
2023-04-07T06:52:22.946Z,6.81
2023-04-07T06:53:22.885Z,6.64
2023-04-07T06:54:22.734Z,6.72
2023-04-07T06:55:22.727Z,6.69
2023-04-07T06:56:22.736Z,6.72
2023-04-07T06:57:22.686Z,6.65
2023-04-07T06:58:22.659Z,6.81
2023-04-07T06:59:22.651Z,6.73
2023-04-07T07:00:22.676Z,6.75
2023-04-07T07:01:22.743Z,6.81
2023-04-07T07:02:22.784Z,6.90
2023-04-07T07:03:22.853Z,6.86
2023-04-07T07:04:22.817Z,6.75
2023-04-07T07:05:23.668Z,6.81
2023-04-07T07:06:22.614Z,6.86
2023-04-07T07:07:22.585Z,6.91
2023-04-07T07:08:22.612Z,6.81
2023-04-07T07:09:22.536Z,6.96
2023-04-07T07:10:22.470Z,6.91
2023-04-07T07:11:22.578Z,6.91
2023-04-07T07:12:22.534Z,6.94
2023-04-07T07:13:22.600Z,6.91
2023-04-07T07:14:23.288Z,6.91
2023-04-07T07:15:22.500Z,6.89
2023-04-07T07:16:22.515Z,6.86
2023-04-07T07:17:22.521Z,6.96
2023-04-07T07:18:22.591Z,6.83
2023-04-07T07:19:22.406Z,6.96
2023-04-07T07:20:22.391Z,7.00
2023-04-07T07:21:22.338Z,6.96
2023-04-07T07:22:22.353Z,6.91
2023-04-07T07:23:22.383Z,6.97
2023-04-07T07:24:22.318Z,7.04
2023-04-07T07:25:22.336Z,7.01
2023-04-07T07:26:22.278Z,7.08
2023-04-07T07:27:22.419Z,6.99
2023-04-07T07:28:22.291Z,6.94
2023-04-07T07:29:22.524Z,7.01
2023-04-07T07:30:22.232Z,7.11
2023-04-07T07:31:23.178Z,7.15
2023-04-07T07:32:22.287Z,7.12
2023-04-07T07:33:22.303Z,7.14
2023-04-07T07:34:22.213Z,7.14
2023-04-07T07:35:22.187Z,7.16
2023-04-07T07:36:22.241Z,7.05
2023-04-07T07:37:22.173Z,7.15
2023-04-07T07:38:22.171Z,7.15
2023-04-07T07:39:22.179Z,7.26
2023-04-07T07:40:22.125Z,7.21
2023-04-07T07:41:22.135Z,7.16
2023-04-07T07:42:22.124Z,7.04
2023-04-07T07:43:22.152Z,7.00
2023-04-07T07:44:22.109Z,7.07
2023-04-07T07:45:22.061Z,7.15
2023-04-07T07:46:22.116Z,7.19
2023-04-07T07:47:22.076Z,7.19
2023-04-07T07:48:22.058Z,7.21
2023-04-07T07:49:22.133Z,7.19
2023-04-07T07:50:22.006Z,7.24
2023-04-07T07:51:22.011Z,7.23
2023-04-07T07:52:21.988Z,7.23
2023-04-07T07:53:21.998Z,7.14
2023-04-07T07:54:21.986Z,7.42
2023-04-07T07:55:21.989Z,7.39
2023-04-07T07:56:21.936Z,7.18
2023-04-07T07:57:22.115Z,7.15
2023-04-07T07:58:21.982Z,7.21
2023-04-07T07:59:21.984Z,7.26
2023-04-07T08:00:21.945Z,7.26
2023-04-07T08:01:22.008Z,7.26
2023-04-07T08:02:22.035Z,7.26
2023-04-07T08:03:21.941Z,7.34
2023-04-07T08:04:22.014Z,7.32
2023-04-07T08:05:21.849Z,7.32
2023-04-07T08:06:21.845Z,7.30
2023-04-07T08:07:22.834Z,7.39
2023-04-07T08:08:21.822Z,7.44
2023-04-07T08:09:21.798Z,7.54
2023-04-07T08:10:21.788Z,7.48
2023-04-07T08:11:21.787Z,7.32
2023-04-07T08:12:21.802Z,7.37
2023-04-07T08:13:21.743Z,7.37
2023-04-07T08:14:21.719Z,7.42
2023-04-07T08:15:21.757Z,7.44
2023-04-07T08:16:21.783Z,7.44
2023-04-07T08:17:21.697Z,7.30
2023-04-07T08:18:21.708Z,7.33
2023-04-07T08:19:21.696Z,7.41
2023-04-07T08:20:21.675Z,7.34
2023-04-07T08:21:21.657Z,7.51
2023-04-07T08:22:21.658Z,7.51
2023-04-07T08:23:21.664Z,7.55
2023-04-07T08:24:21.617Z,7.54
2023-04-07T08:25:21.643Z,7.60
2023-04-07T08:26:21.619Z,7.69
2023-04-07T08:27:21.616Z,7.67
2023-04-07T08:28:21.561Z,7.55
2023-04-07T08:29:21.621Z,7.51
2023-04-07T08:30:21.542Z,7.54
2023-04-07T08:31:21.640Z,7.51
2023-04-07T08:32:21.590Z,7.45
2023-04-07T08:33:21.528Z,7.26
2023-04-07T08:34:21.551Z,7.45
2023-04-07T08:35:21.544Z,7.52
2023-04-07T08:36:21.545Z,7.34
2023-04-07T08:37:21.526Z,7.41
2023-04-07T08:38:21.497Z,7.37
2023-04-07T08:39:21.503Z,7.27
2023-04-07T08:40:21.609Z,7.37
2023-04-07T08:41:21.520Z,7.47
2023-04-07T08:42:21.516Z,7.42
2023-04-07T08:43:21.426Z,7.57
2023-04-07T08:44:21.419Z,7.79
2023-04-07T08:45:21.390Z,7.62
2023-04-07T08:46:21.429Z,7.67
2023-04-07T08:47:21.411Z,7.52
2023-04-07T08:48:21.330Z,7.52
2023-04-07T08:49:21.397Z,7.69
2023-04-07T08:50:21.367Z,7.63
2023-04-07T08:51:21.352Z,7.79
2023-04-07T08:52:21.338Z,7.60
2023-04-07T08:53:21.322Z,7.58
2023-04-07T08:54:21.314Z,7.76
2023-04-07T08:55:21.336Z,7.63
2023-04-07T08:56:21.308Z,7.74
2023-04-07T08:57:21.312Z,7.76
2023-04-07T08:58:21.256Z,7.51
2023-04-07T08:59:21.227Z,7.82
2023-04-07T09:00:21.260Z,7.91
2023-04-07T09:01:21.280Z,7.95
2023-04-07T09:02:21.341Z,8.03
2023-04-07T09:03:21.325Z,8.13
2023-04-07T09:04:21.266Z,8.24
2023-04-07T09:05:21.230Z,8.04
2023-04-07T09:06:21.186Z,8.04
2023-04-07T09:07:21.232Z,7.91
2023-04-07T09:08:21.184Z,7.86
2023-04-07T09:09:21.149Z,7.73
2023-04-07T09:10:21.144Z,7.89
2023-04-07T09:11:21.100Z,8.21
2023-04-07T09:12:21.140Z,8.32
2023-04-07T09:13:21.103Z,8.14
2023-04-07T09:14:21.094Z,8.31
2023-04-07T09:15:21.078Z,8.49
2023-04-07T09:16:21.059Z,8.65
2023-04-07T09:17:21.052Z,8.86
2023-04-07T09:18:21.080Z,8.75
2023-04-07T09:19:21.049Z,8.71
2023-04-07T09:20:21.016Z,8.61
2023-04-07T09:21:21.041Z,8.82
2023-04-07T09:22:21.015Z,8.97
2023-04-07T09:23:20.997Z,8.64
2023-04-07T09:24:21.002Z,8.22
2023-04-07T09:25:20.942Z,8.46
2023-04-07T09:26:21.956Z,8.75
2023-04-07T09:27:20.934Z,9.10
2023-04-07T09:28:20.932Z,9.08
2023-04-07T09:29:21.003Z,8.73
2023-04-07T09:30:20.945Z,8.96
2023-04-07T09:31:20.910Z,9.03
2023-04-07T09:32:20.880Z,8.73
2023-04-07T09:33:20.852Z,8.94
2023-04-07T09:34:20.880Z,8.98
2023-04-07T09:35:20.883Z,8.86
2023-04-07T09:36:20.976Z,8.85
2023-04-07T09:37:20.841Z,9.04
2023-04-07T09:38:20.815Z,9.48
2023-04-07T09:39:20.835Z,9.26
2023-04-07T09:40:20.848Z,9.71
2023-04-07T09:41:21.848Z,10.25
2023-04-07T09:42:20.806Z,10.68
2023-04-07T09:43:20.766Z,10.91
2023-04-07T09:44:20.779Z,10.84
2023-04-07T09:45:33.328Z,10.52
2023-04-07T09:46:24.969Z,10.66
2023-04-07T09:47:20.730Z,10.75
2023-04-07T09:48:20.749Z,11.05
2023-04-07T09:49:20.775Z,10.91
2023-04-07T09:50:20.795Z,11.08
2023-04-07T09:51:20.644Z,11.51
2023-04-07T09:52:20.660Z,11.79
2023-04-07T09:53:20.620Z,11.24
2023-04-07T09:54:20.655Z,11.05
2023-04-07T09:55:20.748Z,11.41
2023-04-07T09:56:21.211Z,12.33
2023-04-07T09:57:20.652Z,12.95
2023-04-07T09:58:20.572Z,12.94
2023-04-07T09:59:20.599Z,12.89
2023-04-07T10:00:20.629Z,13.50
2023-04-07T10:01:20.626Z,14.21
2023-04-07T10:02:20.653Z,14.01
2023-04-07T10:03:20.618Z,14.23
2023-04-07T10:04:20.578Z,14.44
2023-04-07T10:05:20.525Z,14.23
2023-04-07T10:06:20.500Z,13.44
2023-04-07T10:07:20.509Z,13.66
2023-04-07T10:08:20.577Z,13.94
2023-04-07T10:09:20.467Z,13.94
2023-04-07T10:10:20.517Z,13.84
2023-04-07T10:11:20.466Z,13.80
2023-04-07T10:12:20.836Z,13.94
2023-04-07T10:13:20.434Z,13.90
2023-04-07T10:14:20.433Z,13.57
2023-04-07T10:15:20.446Z,13.84
2023-04-07T10:16:20.456Z,14.44
2023-04-07T10:17:20.393Z,14.74
2023-04-07T10:18:20.425Z,14.82
2023-04-07T10:19:20.364Z,14.52
2023-04-07T10:20:20.363Z,13.88
2023-04-07T10:21:20.362Z,13.47
2023-04-07T10:22:20.339Z,12.96
2023-04-07T10:23:20.379Z,12.87
2023-04-07T10:24:20.323Z,12.79
2023-04-07T10:25:20.300Z,13.01
2023-04-07T10:26:20.284Z,13.21
2023-04-07T10:27:20.289Z,13.38
2023-04-07T10:28:20.313Z,13.50
2023-04-07T10:29:20.304Z,13.36
2023-04-07T10:30:20.285Z,13.01
2023-04-07T10:31:20.344Z,12.87
2023-04-07T10:32:20.267Z,13.24
2023-04-07T10:33:20.235Z,13.93
2023-04-07T10:34:20.247Z,13.68
2023-04-07T10:35:20.234Z,13.90
2023-04-07T10:36:20.248Z,14.38
2023-04-07T10:37:20.174Z,15.13
2023-04-07T10:38:20.257Z,15.73
2023-04-07T10:39:20.213Z,16.17
2023-04-07T10:40:20.170Z,16.60
2023-04-07T10:41:20.113Z,16.70
2023-04-07T10:42:20.180Z,16.88
2023-04-07T10:43:21.601Z,17.12
2023-04-07T10:44:20.158Z,17.36
2023-04-07T10:45:20.074Z,17.38
2023-04-07T10:46:20.112Z,17.32
2023-04-07T10:47:20.094Z,16.87
2023-04-07T10:48:20.064Z,16.27
2023-04-07T10:49:20.144Z,16.52
2023-04-07T10:50:20.346Z,16.63
2023-04-07T10:51:20.001Z,17.25
2023-04-07T10:52:20.012Z,17.20
2023-04-07T10:53:21.015Z,17.28
2023-04-07T10:54:19.962Z,17.38
2023-04-07T10:55:20.001Z,16.98
2023-04-07T10:56:20.063Z,17.25
2023-04-07T10:57:19.965Z,17.55
2023-04-07T10:58:19.932Z,17.92
2023-04-07T10:59:19.916Z,17.94
2023-04-07T11:00:19.994Z,17.74
2023-04-07T11:01:19.968Z,17.20
2023-04-07T11:02:20.868Z,17.40
2023-04-07T11:03:20.069Z,17.60
2023-04-07T11:04:20.009Z,17.62
2023-04-07T11:05:19.832Z,17.60
2023-04-07T11:06:19.893Z,17.49
2023-04-07T11:07:19.850Z,17.38
2023-04-07T11:08:19.841Z,16.99
2023-04-07T11:09:19.803Z,16.57
2023-04-07T11:10:19.856Z,15.74
2023-04-07T11:11:19.829Z,15.41
2023-04-07T11:12:19.807Z,16.17
2023-04-07T11:13:19.805Z,16.60
2023-04-07T11:14:19.772Z,16.99
2023-04-07T11:15:19.760Z,17.63
2023-04-07T11:16:19.877Z,17.39
2023-04-07T11:17:19.746Z,16.81
2023-04-07T11:18:19.768Z,16.30
2023-04-07T11:19:19.730Z,15.53
2023-04-07T11:20:19.746Z,15.30
2023-04-07T11:21:19.821Z,15.43
2023-04-07T11:23:20.669Z,16.10
2023-04-07T11:24:19.692Z,15.56
2023-04-07T11:25:19.656Z,15.12
2023-04-07T11:26:19.662Z,15.68
2023-04-07T11:27:19.703Z,16.27
2023-04-07T11:28:19.621Z,16.55
2023-04-07T11:29:19.629Z,16.80
2023-04-07T11:30:19.587Z,17.24
2023-04-07T11:31:19.606Z,17.62
2023-04-07T11:32:19.630Z,17.89
2023-04-07T11:33:19.614Z,17.99
2023-04-07T11:34:19.539Z,18.41
2023-04-07T11:35:19.560Z,18.65
2023-04-07T11:36:19.563Z,18.86
2023-04-07T11:37:19.542Z,18.93
2023-04-07T11:38:19.600Z,18.69
2023-04-07T11:39:19.501Z,18.50
2023-04-07T11:40:20.518Z,18.34
2023-04-07T11:41:19.503Z,17.89
2023-04-07T11:42:19.507Z,17.87
2023-04-07T11:43:19.733Z,17.54
2023-04-07T11:44:19.480Z,17.74
2023-04-07T11:45:19.459Z,17.83
2023-04-07T11:46:19.499Z,17.76
2023-04-07T11:47:19.456Z,17.98
2023-04-07T11:48:19.455Z,17.58
2023-04-07T11:49:19.445Z,17.43
2023-04-07T11:50:19.419Z,17.58
2023-04-07T11:51:19.404Z,17.81
2023-04-07T11:52:19.428Z,17.73
2023-04-07T11:53:19.451Z,17.70
2023-04-07T11:54:19.399Z,17.54
2023-04-07T11:55:21.495Z,17.22
2023-04-07T11:56:19.376Z,16.45
2023-04-07T11:57:19.356Z,15.86
2023-04-07T11:58:19.303Z,15.37
2023-04-07T11:59:19.316Z,15.70
2023-04-07T12:00:19.304Z,16.04
2023-04-07T12:01:19.417Z,16.34
2023-04-07T12:02:19.416Z,15.95
2023-04-07T12:03:19.660Z,15.52
2023-04-07T12:04:19.605Z,15.43
2023-04-07T12:05:19.315Z,15.53
2023-04-07T12:06:19.244Z,15.58
2023-04-07T12:07:19.185Z,16.18
2023-04-07T12:08:19.215Z,16.10
2023-04-07T12:09:19.230Z,16.41
2023-04-07T12:10:19.180Z,16.16
2023-04-07T12:11:19.208Z,16.34
2023-04-07T12:12:19.160Z,16.52
2023-04-07T12:13:19.141Z,16.54
2023-04-07T12:14:19.178Z,16.52
2023-04-07T12:15:19.120Z,16.59
2023-04-07T12:16:19.154Z,16.72
2023-04-07T12:17:19.252Z,16.84
2023-04-07T12:18:19.148Z,16.36
2023-04-07T12:19:19.127Z,16.40
2023-04-07T12:20:19.085Z,15.98
2023-04-07T12:21:19.066Z,16.01
2023-04-07T12:22:19.070Z,15.74
2023-04-07T12:23:19.057Z,15.51
2023-04-07T12:24:19.056Z,15.33
2023-04-07T12:25:19.030Z,15.28
2023-04-07T12:26:20.571Z,15.15
2023-04-07T12:27:20.138Z,14.66
2023-04-07T12:28:18.982Z,14.54
2023-04-07T12:29:18.985Z,14.63
2023-04-07T12:30:18.993Z,14.69
2023-04-07T12:31:19.008Z,14.57
2023-04-07T12:32:18.948Z,14.52
2023-04-07T12:33:18.939Z,14.45
2023-04-07T12:34:18.982Z,14.19
2023-04-07T12:35:18.931Z,13.87
2023-04-07T12:36:18.894Z,13.76
2023-04-07T12:37:18.902Z,13.59
2023-04-07T12:38:18.873Z,13.53
2023-04-07T12:39:18.867Z,13.41
2023-04-07T12:40:18.880Z,13.39
2023-04-07T12:41:18.850Z,13.53
2023-04-07T12:42:19.746Z,13.50
2023-04-07T12:43:18.834Z,13.62
2023-04-07T12:44:18.778Z,13.54
2023-04-07T12:45:18.784Z,13.73
2023-04-07T12:46:18.984Z,13.80
2023-04-07T12:47:18.765Z,13.80
2023-04-07T12:48:18.773Z,13.87
2023-04-07T12:49:18.765Z,13.59
2023-04-07T12:50:18.937Z,13.38
2023-04-07T12:51:18.750Z,13.19
2023-04-07T12:52:18.793Z,12.99
2023-04-07T12:53:18.688Z,12.99
2023-04-07T12:54:18.723Z,13.07
2023-04-07T12:55:18.714Z,13.01
2023-04-07T12:56:18.680Z,12.89
2023-04-07T12:57:18.679Z,12.98
2023-04-07T12:58:18.687Z,13.07
2023-04-07T12:59:18.778Z,13.09
2023-04-07T13:00:18.697Z,12.98
2023-04-07T13:01:19.390Z,12.94
2023-04-07T13:02:18.760Z,12.88
2023-04-07T13:03:18.770Z,13.06
2023-04-07T13:04:18.797Z,13.09
2023-04-07T13:05:18.574Z,13.14
2023-04-07T13:06:18.625Z,13.14
2023-04-07T13:07:18.588Z,13.29
2023-04-07T13:08:18.673Z,13.29
2023-04-07T13:09:19.195Z,13.46
2023-04-07T13:10:18.562Z,13.54
2023-04-07T13:11:18.507Z,13.72
2023-04-07T13:12:18.509Z,13.80